Time;durP1;ratioP1;P1;durP2;ratioP2;P2;SDS_P1;SDS_P2;PMS_P1;PMS_P2;Temp;Humidity;BMP_temperature;BMP_pressure;BME280_temperature;BME280_humidity;BME280_pressure;Samples;Min_cycle;Max_cycle;Signal;HPM_P1;HPM_P2
2021/09/05 00:02:10;;;;;;;19.60;12.00;;;;;;;;;;5052994;28;20446;-72
2021/09/05 00:04:38;;;;;;;16.83;11.70;;;;;;;;;;5052975;28;20442;-73
2021/09/05 00:07:05;;;;;;;20.23;12.93;;;;;;;;;;5053144;28;20448;-73
2021/09/05 00:09:35;;;;;;;19.90;12.50;;;;;;;;;;5053714;28;20448;-72
2021/09/05 00:12:02;;;;;;;21.10;12.67;;;;;;;;;;5053673;28;20446;-72
2021/09/05 00:14:30;;;;;;;21.30;14.43;;;;;;;;;;5053735;28;20445;-72
2021/09/05 00:16:57;;;;;;;20.63;13.93;;;;;;;;;;5052974;28;20487;-72
2021/09/05 00:19:24;;;;;;;23.50;14.00;;;;;;;;;;5053170;28;20821;-72
2021/09/05 00:21:51;;;;;;;23.93;14.00;;;;;;;;;;5056272;28;20464;-72
2021/09/05 00:24:18;;;;;;;21.33;14.07;;;;;;;;;;5057285;28;20444;-72
2021/09/05 00:26:47;;;;;;;27.87;14.50;;;;;;;;;;5057003;28;20446;-72
2021/09/05 00:29:14;;;;;;;26.67;13.93;;;;;;;;;;5057360;28;20545;-72
2021/09/05 00:31:42;;;;;;;22.30;13.50;;;;;;;;;;5056897;28;20449;-72
2021/09/05 00:34:09;;;;;;;18.37;13.30;;;;;;;;;;5057039;28;20441;-72
2021/09/05 00:36:37;;;;;;;19.03;12.90;;;;;;;;;;5057071;28;20485;-72
2021/09/05 00:39:06;;;;;;;20.00;13.07;;;;;;;;;;5056976;28;20484;-72
2021/09/05 00:41:33;;;;;;;19.93;12.70;;;;;;;;;;5057012;28;20446;-71
2021/09/05 00:44:03;;;;;;;20.33;12.60;;;;;;;;;;5057212;28;20448;-73
2021/09/05 00:46:31;;;;;;;21.20;12.70;;;;;;;;;;5056629;28;20426;-73
2021/09/05 00:48:58;;;;;;;21.60;13.90;;;;;;;;;;5056823;28;20826;-73
2021/09/05 00:51:29;;;;;;;30.23;14.00;;;;;;;;;;5057362;28;20441;-73
2021/09/05 00:53:56;;;;;;;21.33;13.20;;;;;;;;;;5057105;28;20487;-73
2021/09/05 00:56:23;;;;;;;15.77;11.90;;;;;;;;;;5056307;28;20980;-72
2021/09/05 00:58:53;;;;;;;19.90;12.37;;;;;;;;;;5056296;28;20452;-73
2021/09/05 01:01:22;;;;;;;23.47;12.37;;;;;;;;;;5056290;28;20544;-72
2021/09/05 01:03:49;;;;;;;22.57;13.97;;;;;;;;;;5056593;28;20531;-72
2021/09/05 01:06:17;;;;;;;18.10;12.57;;;;;;;;;;5056576;28;20480;-72
2021/09/05 01:08:45;;;;;;;16.07;12.40;;;;;;;;;;5056147;28;21048;-73
2021/09/05 01:11:12;;;;;;;15.53;12.23;;;;;;;;;;5056374;28;20563;-73
2021/09/05 01:13:39;;;;;;;17.10;11.57;;;;;;;;;;5056496;28;20863;-73
2021/09/05 01:16:06;;;;;;;15.27;11.43;;;;;;;;;;5056271;28;20512;-74
2021/09/05 01:18:35;;;;;;;16.87;11.50;;;;;;;;;;5056345;28;20452;-73
2021/09/05 01:21:02;;;;;;;19.00;12.17;;;;;;;;;;5055934;28;20459;-72
2021/09/05 01:23:29;;;;;;;18.13;11.83;;;;;;;;;;5055972;28;20445;-72
2021/09/05 01:25:56;;;;;;;19.37;12.30;;;;;;;;;;5056724;28;20455;-73
2021/09/05 01:28:25;;;;;;;18.40;12.50;;;;;;;;;;5056686;28;20531;-72
2021/09/05 01:30:52;;;;;;;19.57;12.13;;;;;;;;;;5056087;28;20453;-72
2021/09/05 01:33:19;;;;;;;25.10;12.20;;;;;;;;;;5055692;28;20442;-73
2021/09/05 01:35:46;;;;;;;18.87;13.80;;;;;;;;;;5055749;28;20808;-73
2021/09/05 01:38:14;;;;;;;22.40;12.27;;;;;;;;;;5055993;28;20442;-72
2021/09/05 01:40:48;;;;;;;19.37;12.00;;;;;;;;;;5055564;28;20441;-72
2021/09/05 01:43:15;;;;;;;19.00;12.83;;;;;;;;;;5055584;28;20516;-72
2021/09/05 01:45:44;;;;;;;16.70;12.13;;;;;;;;;;5056229;28;20817;-72
2021/09/05 01:48:11;;;;;;;17.63;12.10;;;;;;;;;;5055586;28;20450;-72
2021/09/05 01:50:38;;;;;;;22.10;13.23;;;;;;;;;;5055803;28;20449;-72
2021/09/05 01:53:06;;;;;;;19.57;12.43;;;;;;;;;;5055660;28;20438;-73
2021/09/05 01:55:33;;;;;;;24.70;13.60;;;;;;;;;;5055613;28;20447;-72
2021/09/05 01:58:00;;;;;;;22.23;12.20;;;;;;;;;;5055210;28;20963;-72
2021/09/05 02:00:27;;;;;;;18.00;11.67;;;;;;;;;;5055802;28;20916;-73
2021/09/05 02:02:56;;;;;;;18.73;11.90;;;;;;;;;;5055694;28;20448;-72
2021/09/05 02:05:23;;;;;;;18.80;13.20;;;;;;;;;;5055107;28;20448;-72
2021/09/05 02:07:50;;;;;;;17.07;12.37;;;;;;;;;;5055361;28;20442;-72
2021/09/05 02:10:17;;;;;;;20.70;13.43;;;;;;;;;;5055080;28;20437;-72
2021/09/05 02:12:44;;;;;;;21.73;12.50;;;;;;;;;;5055302;28;20445;-73
2021/09/05 02:15:12;;;;;;;17.80;11.57;;;;;;;;;;5055044;28;20445;-73
2021/09/05 02:17:39;;;;;;;18.77;12.77;;;;;;;;;;5055199;28;20484;-73
2021/09/05 02:20:08;;;;;;;15.63;11.60;;;;;;;;;;5055183;28;20449;-73
2021/09/05 02:22:35;;;;;;;20.97;12.00;;;;;;;;;;5055134;28;20450;-73
2021/09/05 02:25:03;;;;;;;19.93;12.53;;;;;;;;;;5054840;28;20520;-73
2021/09/05 02:27:30;;;;;;;19.33;11.63;;;;;;;;;;5054736;28;20453;-73
2021/09/05 02:29:57;;;;;;;17.57;12.47;;;;;;;;;;5055409;28;20446;-72
2021/09/05 02:32:24;;;;;;;24.20;13.43;;;;;;;;;;5055054;28;20442;-73
2021/09/05 02:34:51;;;;;;;15.40;12.63;;;;;;;;;;5055092;28;20450;-72
2021/09/05 02:37:20;;;;;;;24.03;13.20;;;;;;;;;;5054440;28;20476;-74
2021/09/05 02:39:47;;;;;;;20.53;12.50;;;;;;;;;;5054798;28;20438;-73
2021/09/05 02:42:14;;;;;;;20.60;12.87;;;;;;;;;;5054642;28;20442;-72
2021/09/05 02:44:41;;;;;;;22.27;13.30;;;;;;;;;;5053872;28;20946;-72
2021/09/05 02:47:09;;;;;;;18.70;12.30;;;;;;;;;;5054261;28;20964;-72
2021/09/05 02:49:36;;;;;;;20.90;13.17;;;;;;;;;;5054332;28;20473;-73
2021/09/05 02:52:05;;;;;;;19.87;13.20;;;;;;;;;;5054504;28;20459;-72
2021/09/05 02:54:34;;;;;;;24.17;13.37;;;;;;;;;;5054967;28;20449;-72
2021/09/05 02:57:01;;;;;;;24.23;13.20;;;;;;;;;;5054433;28;20520;-72
2021/09/05 02:59:28;;;;;;;22.33;13.00;;;;;;;;;;5054177;28;20455;-72
2021/09/05 03:01:55;;;;;;;25.83;13.60;;;;;;;;;;5054496;28;20437;-72
2021/09/05 03:04:22;;;;;;;28.07;13.23;;;;;;;;;;5054288;28;20444;-71
2021/09/05 03:06:50;;;;;;;22.33;12.23;;;;;;;;;;5055096;28;20454;-72
2021/09/05 03:09:17;;;;;;;17.03;12.10;;;;;;;;;;5054163;28;20451;-72
2021/09/05 03:11:45;;;;;;;18.13;12.67;;;;;;;;;;5054578;28;20441;-72
2021/09/05 03:14:13;;;;;;;23.47;12.27;;;;;;;;;;5054745;28;20515;-72
2021/09/05 03:16:40;;;;;;;20.47;12.03;;;;;;;;;;5054081;28;20488;-72
2021/09/05 03:19:07;;;;;;;21.17;14.10;;;;;;;;;;5054380;28;20445;-72
2021/09/05 03:21:34;;;;;;;20.97;13.03;;;;;;;;;;5053712;28;20507;-72
2021/09/05 03:24:01;;;;;;;20.90;13.47;;;;;;;;;;5053981;28;20949;-72
2021/09/05 03:26:29;;;;;;;20.40;12.87;;;;;;;;;;5054005;28;20437;-72
2021/09/05 03:28:57;;;;;;;18.23;13.40;;;;;;;;;;5053583;28;20458;-72
2021/09/05 03:31:24;;;;;;;19.33;13.10;;;;;;;;;;5053856;28;20493;-72
2021/09/05 03:33:51;;;;;;;19.17;12.30;;;;;;;;;;5053778;28;20540;-72
2021/09/05 03:36:19;;;;;;;22.70;13.23;;;;;;;;;;5053676;28;20437;-72
2021/09/05 03:38:46;;;;;;;22.70;13.07;;;;;;;;;;5053727;28;20482;-72
2021/09/05 03:41:14;;;;;;;20.13;12.97;;;;;;;;;;5053714;28;20446;-72
2021/09/05 03:43:41;;;;;;;22.90;13.30;;;;;;;;;;5053379;28;20935;-72
2021/09/05 03:46:09;;;;;;;23.10;12.60;;;;;;;;;;5053600;28;20956;-72
2021/09/05 03:48:37;;;;;;;22.47;12.07;;;;;;;;;;5053460;28;20477;-71
2021/09/05 03:51:04;;;;;;;20.40;12.63;;;;;;;;;;5053385;28;20904;-72
2021/09/05 03:53:31;;;;;;;21.10;13.43;;;;;;;;;;5053251;28;20445;-72
2021/09/05 03:55:58;;;;;;;19.13;13.40;;;;;;;;;;5053019;28;20532;-73
2021/09/05 03:58:26;;;;;;;20.67;11.63;;;;;;;;;;5053452;28;20473;-72
2021/09/05 04:00:53;;;;;;;21.73;12.93;;;;;;;;;;5053144;28;20445;-72
2021/09/05 04:03:23;;;;;;;18.10;13.50;;;;;;;;;;5053050;28;20441;-73
2021/09/05 04:05:50;;;;;;;16.90;11.00;;;;;;;;;;5053321;28;20930;-72
2021/09/05 04:08:17;;;;;;;21.67;12.90;;;;;;;;;;5053454;28;20966;-72
2021/09/05 04:10:45;;;;;;;17.90;12.70;;;;;;;;;;5053295;28;20528;-72
2021/09/05 04:13:14;;;;;;;23.67;13.40;;;;;;;;;;5052948;28;20932;-72
2021/09/05 04:15:41;;;;;;;21.77;12.97;;;;;;;;;;5053661;28;20441;-72
2021/09/05 04:18:09;;;;;;;19.40;12.03;;;;;;;;;;5052814;28;21019;-72
2021/09/05 04:20:37;;;;;;;22.03;12.37;;;;;;;;;;5053352;28;20528;-72
2021/09/05 04:23:05;;;;;;;19.00;12.60;;;;;;;;;;5053438;28;20448;-72
2021/09/05 04:25:32;;;;;;;21.07;12.90;;;;;;;;;;5053133;28;20796;-72
2021/09/05 04:27:59;;;;;;;20.10;13.03;;;;;;;;;;5052969;28;20445;-72
2021/09/05 04:30:26;;;;;;;20.93;12.90;;;;;;;;;;5053430;28;20454;-72
2021/09/05 04:32:53;;;;;;;20.27;12.33;;;;;;;;;;5052911;28;20931;-72
2021/09/05 04:35:21;;;;;;;24.17;12.67;;;;;;;;;;5052777;28;20950;-71
2021/09/05 04:37:49;;;;;;;21.83;13.13;;;;;;;;;;5053331;28;20979;-71
2021/09/05 04:40:16;;;;;;;19.80;12.83;;;;;;;;;;5053796;28;20443;-72
2021/09/05 04:42:44;;;;;;;20.30;12.50;;;;;;;;;;5053644;28;20434;-71
2021/09/05 04:45:11;;;;;;;18.47;12.87;;;;;;;;;;5052723;28;20446;-72
2021/09/05 04:47:38;;;;;;;20.20;13.47;;;;;;;;;;5053095;28;20529;-72
2021/09/05 04:50:06;;;;;;;21.20;13.30;;;;;;;;;;5068058;28;20468;-73
2021/09/05 04:52:33;;;;;;;19.67;13.53;;;;;;;;;;5072031;28;20511;-73
2021/09/05 04:55:02;;;;;;;16.60;12.10;;;;;;;;;;5071609;28;20433;-73
2021/09/05 04:57:29;;;;;;;20.80;12.70;;;;;;;;;;5072209;28;20475;-73
2021/09/05 04:59:56;;;;;;;24.77;14.33;;;;;;;;;;5072320;28;20448;-73
2021/09/05 05:02:23;;;;;;;19.90;12.10;;;;;;;;;;5072657;28;20444;-73
2021/09/05 05:04:51;;;;;;;20.90;13.10;;;;;;;;;;5071655;28;20447;-73
2021/09/05 05:07:18;;;;;;;19.10;12.53;;;;;;;;;;5073884;28;20470;-73
2021/09/05 05:09:45;;;;;;;22.17;12.90;;;;;;;;;;5076362;28;20440;-73
2021/09/05 05:12:14;;;;;;;18.13;11.43;;;;;;;;;;5075300;28;20531;-73
2021/09/05 05:14:42;;;;;;;23.40;13.33;;;;;;;;;;5075303;28;20451;-72
2021/09/05 05:17:09;;;;;;;22.00;13.53;;;;;;;;;;5075442;28;20547;-72
2021/09/05 05:19:36;;;;;;;19.40;12.27;;;;;;;;;;5073295;28;20444;-73
2021/09/05 05:22:03;;;;;;;22.10;12.20;;;;;;;;;;5076249;28;20879;-73
2021/09/05 05:24:31;;;;;;;21.17;12.73;;;;;;;;;;5076364;28;20450;-73
2021/09/05 05:26:58;;;;;;;21.17;12.80;;;;;;;;;;5075846;28;20487;-73
2021/09/05 05:29:27;;;;;;;21.50;12.43;;;;;;;;;;5076415;28;20444;-73
2021/09/05 05:31:54;;;;;;;19.63;12.47;;;;;;;;;;5075736;28;20532;-73
2021/09/05 05:34:21;;;;;;;18.40;13.17;;;;;;;;;;5075949;28;21155;-72
2021/09/05 05:36:48;;;;;;;18.93;13.47;;;;;;;;;;5075530;28;20440;-73
2021/09/05 05:39:15;;;;;;;17.80;11.70;;;;;;;;;;5074415;28;20480;-73
2021/09/05 05:41:43;;;;;;;20.97;13.40;;;;;;;;;;5075538;28;20535;-72
2021/09/05 05:44:10;;;;;;;26.70;13.07;;;;;;;;;;5075556;28;20445;-73
2021/09/05 05:46:38;;;;;;;20.13;13.43;;;;;;;;;;5075633;28;20446;-72
2021/09/05 05:49:06;;;;;;;16.00;12.20;;;;;;;;;;5074776;28;21067;-71
2021/09/05 05:51:33;;;;;;;21.63;12.17;;;;;;;;;;5093337;28;20535;-70
2021/09/05 05:54:00;;;;;;;21.60;13.20;;;;;;;;;;5095975;28;20436;-70
2021/09/05 05:56:27;;;;;;;15.97;11.43;;;;;;;;;;5095553;28;20434;-70
2021/09/05 05:58:54;;;;;;;20.33;14.23;;;;;;;;;;5095003;28;20491;-70
2021/09/05 06:01:23;;;;;;;19.47;12.93;;;;;;;;;;5094901;28;20450;-70
2021/09/05 06:03:51;;;;;;;24.17;12.87;;;;;;;;;;5094924;28;20452;-69
2021/09/05 06:06:18;;;;;;;22.13;11.70;;;;;;;;;;5094823;28;20526;-70
2021/09/05 06:08:46;;;;;;;17.57;11.60;;;;;;;;;;5094574;28;20439;-70
2021/09/05 06:11:13;;;;;;;17.10;11.60;;;;;;;;;;5094457;28;20446;-70
2021/09/05 06:13:40;;;;;;;17.23;12.27;;;;;;;;;;5094902;28;20444;-70
2021/09/05 06:16:07;;;;;;;20.03;12.80;;;;;;;;;;5094744;28;20439;-70
2021/09/05 06:18:34;;;;;;;14.40;11.40;;;;;;;;;;5094008;28;20471;-70
2021/09/05 06:21:03;;;;;;;19.27;13.10;;;;;;;;;;5093046;28;20462;-70
2021/09/05 06:23:30;;;;;;;18.70;11.73;;;;;;;;;;5095117;28;20530;-70
2021/09/05 06:25:57;;;;;;;18.87;12.30;;;;;;;;;;5095148;28;20803;-70
2021/09/05 06:28:24;;;;;;;20.90;11.10;;;;;;;;;;5095327;28;20467;-70
2021/09/05 06:30:52;;;;;;;16.97;11.87;;;;;;;;;;5095346;28;20440;-70
2021/09/05 06:33:19;;;;;;;19.03;13.33;;;;;;;;;;5095186;28;20435;-71
2021/09/05 06:35:46;;;;;;;20.33;11.33;;;;;;;;;;5094657;28;20440;-70
2021/09/05 06:38:15;;;;;;;19.33;12.30;;;;;;;;;;5094749;28;20471;-70
2021/09/05 06:40:42;;;;;;;21.10;12.40;;;;;;;;;;5095293;28;20446;-70
2021/09/05 06:43:09;;;;;;;18.57;12.03;;;;;;;;;;5094466;28;20451;-70
2021/09/05 06:45:36;;;;;;;21.53;10.97;;;;;;;;;;5093253;28;20930;-70
2021/09/05 06:48:04;;;;;;;19.53;12.03;;;;;;;;;;5092767;28;20466;-70
2021/09/05 06:50:31;;;;;;;16.13;11.53;;;;;;;;;;5093567;28;20474;-70
2021/09/05 06:52:58;;;;;;;19.13;11.47;;;;;;;;;;5093650;28;20446;-71
2021/09/05 06:55:27;;;;;;;17.43;11.60;;;;;;;;;;5093846;28;20923;-71
2021/09/05 06:57:55;;;;;;;17.40;11.70;;;;;;;;;;5094088;28;20515;-70
2021/09/05 07:00:22;;;;;;;19.13;12.20;;;;;;;;;;5093725;28;20881;-70
2021/09/05 07:02:49;;;;;;;20.00;12.20;;;;;;;;;;5094248;28;21006;-70
2021/09/05 07:05:16;;;;;;;14.93;11.60;;;;;;;;;;5094506;28;20522;-70
2021/09/05 07:07:43;;;;;;;18.30;12.60;;;;;;;;;;5094306;28;20802;-70
2021/09/05 07:10:11;;;;;;;17.40;12.00;;;;;;;;;;5094800;28;20437;-70
2021/09/05 07:12:40;;;;;;;16.83;12.27;;;;;;;;;;5094992;28;20435;-70
2021/09/05 07:15:07;;;;;;;15.43;10.63;;;;;;;;;;5093895;28;20444;-70
2021/09/05 07:17:35;;;;;;;16.17;12.50;;;;;;;;;;5091811;28;20452;-70
2021/09/05 07:20:02;;;;;;;19.57;12.23;;;;;;;;;;5094773;28;20523;-70
2021/09/05 07:22:29;;;;;;;16.20;11.93;;;;;;;;;;5094000;28;20523;-70
2021/09/05 07:24:56;;;;;;;19.50;12.73;;;;;;;;;;5093919;28;20446;-70
2021/09/05 07:27:24;;;;;;;21.23;13.23;;;;;;;;;;5093185;28;20527;-70
2021/09/05 07:29:52;;;;;;;21.47;13.47;;;;;;;;;;5094205;28;20502;-70
2021/09/05 07:32:19;;;;;;;16.50;12.43;;;;;;;;;;5094151;28;20535;-69
2021/09/05 07:34:46;;;;;;;18.53;12.70;;;;;;;;;;5093934;28;20432;-71
2021/09/05 07:37:14;;;;;;;15.53;12.70;;;;;;;;;;5093929;28;20453;-71
2021/09/05 07:39:41;;;;;;;20.47;14.20;;;;;;;;;;5093730;28;20511;-71
2021/09/05 07:42:08;;;;;;;21.67;13.40;;;;;;;;;;5093747;28;20926;-71
2021/09/05 07:44:35;;;;;;;19.20;13.40;;;;;;;;;;5093653;28;20444;-71
2021/09/05 07:47:04;;;;;;;20.93;14.00;;;;;;;;;;5093006;28;20954;-71
2021/09/05 07:49:31;;;;;;;26.17;13.27;;;;;;;;;;5091698;28;20991;-71
2021/09/05 07:51:59;;;;;;;22.13;13.80;;;;;;;;;;5094405;28;20798;-72
2021/09/05 07:54:26;;;;;;;29.80;14.70;;;;;;;;;;5093694;28;20438;-71
2021/09/05 07:56:53;;;;;;;21.07;13.57;;;;;;;;;;5093598;28;20434;-71
2021/09/05 07:59:20;;;;;;;24.03;14.47;;;;;;;;;;5093673;28;20587;-71
2021/09/05 08:01:48;;;;;;;25.03;14.70;;;;;;;;;;5093908;28;20442;-72
2021/09/05 08:04:16;;;;;;;22.23;13.60;;;;;;;;;;5093647;28;20484;-71
2021/09/05 08:06:43;;;;;;;23.80;12.60;;;;;;;;;;5093158;28;20449;-71
2021/09/05 08:09:11;;;;;;;18.10;13.80;;;;;;;;;;5093337;28;20444;-71
2021/09/05 08:11:38;;;;;;;19.80;14.27;;;;;;;;;;5093575;28;20818;-71
2021/09/05 08:14:05;;;;;;;21.33;13.63;;;;;;;;;;5093812;28;20478;-71
2021/09/05 08:16:36;;;;;;;19.00;14.43;;;;;;;;;;5093631;28;20515;-71
2021/09/05 08:19:03;;;;;;;20.17;14.00;;;;;;;;;;5083571;28;20534;-71
2021/09/05 08:21:31;;;;;;;18.60;14.27;;;;;;;;;;5072857;28;20455;-72
2021/09/05 08:23:58;;;;;;;20.97;14.57;;;;;;;;;;5073482;28;20541;-71
2021/09/05 08:26:26;;;;;;;25.10;17.30;;;;;;;;;;5073559;28;20450;-71
2021/09/05 08:28:53;;;;;;;21.63;14.13;;;;;;;;;;5072763;28;20452;-71
2021/09/05 08:31:21;;;;;;;27.20;16.37;;;;;;;;;;5072771;28;20933;-71
2021/09/05 08:33:48;;;;;;;23.23;13.90;;;;;;;;;;5073116;28;20531;-71
2021/09/05 08:36:15;;;;;;;17.90;13.80;;;;;;;;;;5072832;28;21016;-72
2021/09/05 08:38:44;;;;;;;21.37;14.33;;;;;;;;;;5072548;28;20478;-71
2021/09/05 08:41:11;;;;;;;22.83;14.60;;;;;;;;;;5073086;28;20524;-71
2021/09/05 08:43:39;;;;;;;21.90;14.33;;;;;;;;;;5076682;28;21040;-71
2021/09/05 08:46:06;;;;;;;24.33;14.03;;;;;;;;;;5077013;28;20537;-71
2021/09/05 08:48:34;;;;;;;19.13;15.00;;;;;;;;;;5074574;28;20551;-70
2021/09/05 08:51:01;;;;;;;18.43;14.23;;;;;;;;;;5057050;28;20789;-71
2021/09/05 08:53:28;;;;;;;22.80;17.10;;;;;;;;;;5056666;28;20455;-72
2021/09/05 08:55:57;;;;;;;18.70;14.33;;;;;;;;;;5057235;28;20445;-72
2021/09/05 08:58:24;;;;;;;22.73;15.00;;;;;;;;;;5056521;28;20594;-71
2021/09/05 09:00:51;;;;;;;26.60;14.97;;;;;;;;;;5056747;28;20449;-72
2021/09/05 09:03:23;;;;;;;22.03;15.23;;;;;;;;;;5056749;28;20443;-71
2021/09/05 09:05:55;;;;;;;25.87;15.50;;;;;;;;;;5056545;28;20545;-71
2021/09/05 09:08:23;;;;;;;18.27;14.03;;;;;;;;;;5055959;28;20454;-71
2021/09/05 09:10:51;;;;;;;27.57;15.53;;;;;;;;;;5055957;28;20455;-71
2021/09/05 09:13:30;;;;;;;20.30;14.30;;;;;;;;;;5056432;28;20442;-71
2021/09/05 09:15:58;;;;;;;19.27;14.20;;;;;;;;;;5056898;28;20449;-71
2021/09/05 09:18:27;;;;;;;20.57;15.27;;;;;;;;;;5055896;28;21011;-71
2021/09/05 09:20:55;;;;;;;23.20;13.60;;;;;;;;;;5086446;28;20446;-71
2021/09/05 09:23:23;;;;;;;28.07;16.60;;;;;;;;;;5096847;28;20486;-71
2021/09/05 09:25:51;;;;;;;25.80;14.80;;;;;;;;;;5096171;28;20444;-71
2021/09/05 09:28:25;;;;;;;18.90;16.00;;;;;;;;;;5096478;28;20440;-71
2021/09/05 09:30:54;;;;;;;19.40;13.90;;;;;;;;;;5095894;28;20440;-71
2021/09/05 09:33:22;;;;;;;27.33;17.00;;;;;;;;;;5096836;28;20532;-71
2021/09/05 09:35:50;;;;;;;24.27;16.50;;;;;;;;;;5095989;28;20442;-71
2021/09/05 09:38:17;;;;;;;19.53;14.87;;;;;;;;;;5096245;28;20444;-71
2021/09/05 09:40:46;;;;;;;30.20;14.73;;;;;;;;;;5096001;28;20455;-71
2021/09/05 09:43:18;;;;;;;20.47;16.47;;;;;;;;;;5096490;28;20444;-71
2021/09/05 09:45:45;;;;;;;26.43;14.70;;;;;;;;;;5095932;28;20993;-72
2021/09/05 09:48:22;;;;;;;19.13;14.63;;;;;;;;;;5095932;28;20442;-70
2021/09/05 09:50:50;;;;;;;23.77;14.37;;;;;;;;;;5093599;28;20432;-71
2021/09/05 09:53:17;;;;;;;20.83;15.53;;;;;;;;;;5094437;28;20533;-71
2021/09/05 09:55:45;;;;;;;17.60;14.30;;;;;;;;;;5095874;28;20439;-71
2021/09/05 09:58:12;;;;;;;21.67;14.70;;;;;;;;;;5095763;28;20491;-71
2021/09/05 10:00:40;;;;;;;20.47;16.23;;;;;;;;;;5095959;28;20510;-71
2021/09/05 10:03:07;;;;;;;16.80;14.20;;;;;;;;;;5095518;28;20451;-71
2021/09/05 10:05:37;;;;;;;20.40;15.47;;;;;;;;;;5095229;28;20907;-72
2021/09/05 10:08:05;;;;;;;19.77;14.73;;;;;;;;;;5077327;28;20958;-71
2021/09/05 10:10:33;;;;;;;19.27;14.17;;;;;;;;;;5073817;28;20456;-71
2021/09/05 10:13:00;;;;;;;21.30;13.13;;;;;;;;;;5074401;28;20441;-71
2021/09/05 10:15:27;;;;;;;17.00;13.37;;;;;;;;;;5074222;28;20963;-71
2021/09/05 10:17:55;;;;;;;16.80;12.83;;;;;;;;;;5073862;28;20445;-71
2021/09/05 10:20:24;;;;;;;16.37;12.47;;;;;;;;;;5074542;28;21007;-70
2021/09/05 10:22:52;;;;;;;18.97;13.60;;;;;;;;;;5093685;28;20448;-70
2021/09/05 10:25:21;;;;;;;19.97;15.13;;;;;;;;;;5095305;28;20481;-71
2021/09/05 10:27:49;;;;;;;21.00;14.60;;;;;;;;;;5095590;28;20446;-71
2021/09/05 10:30:18;;;;;;;15.97;14.30;;;;;;;;;;5094624;28;20931;-71
2021/09/05 10:32:47;;;;;;;21.70;13.87;;;;;;;;;;5095227;28;20935;-71
2021/09/05 10:35:36;;;;;;;20.57;13.37;;;;;;;;;;5095567;28;20503;-72
2021/09/05 10:38:21;;;;;;;17.80;13.83;;;;;;;;;;5095507;28;20421;-72
2021/09/05 10:40:48;;;;;;;15.93;13.07;;;;;;;;;;5095345;28;20467;-71
2021/09/05 10:43:16;;;;;;;16.40;12.60;;;;;;;;;;5095272;28;20524;-71
2021/09/05 10:45:44;;;;;;;22.10;13.60;;;;;;;;;;5095114;28;20857;-72
2021/09/05 10:48:30;;;;;;;16.53;12.97;;;;;;;;;;5094475;28;20535;-71
2021/09/05 10:51:03;;;;;;;19.70;13.10;;;;;;;;;;5095240;28;20424;-72
2021/09/05 10:53:35;;;;;;;17.90;13.17;;;;;;;;;;5077294;28;20444;-70
2021/09/05 10:56:12;;;;;;;21.17;13.40;;;;;;;;;;5074262;28;20430;-70
2021/09/05 10:58:40;;;;;;;14.63;12.37;;;;;;;;;;5074071;28;20441;-72
2021/09/05 11:01:20;;;;;;;22.60;13.80;;;;;;;;;;5075045;28;20792;-68
2021/09/05 11:04:06;;;;;;;17.93;13.80;;;;;;;;;;5074110;28;20530;-69
2021/09/05 11:06:34;;;;;;;16.20;12.40;;;;;;;;;;5073753;28;20608;-69
2021/09/05 11:09:16;;;;;;;15.43;12.30;;;;;;;;;;5074331;28;20455;-70
2021/09/05 11:12:04;;;;;;;15.67;12.60;;;;;;;;;;5074045;28;20446;-69
2021/09/05 11:14:47;;;;;;;16.97;12.30;;;;;;;;;;5074532;28;20432;-69
2021/09/05 11:17:16;;;;;;;17.23;12.90;;;;;;;;;;5074297;28;20483;-69
2021/09/05 11:19:44;;;;;;;18.03;12.67;;;;;;;;;;5074031;28;20513;-69
2021/09/05 11:22:12;;;;;;;29.03;13.33;;;;;;;;;;5073613;28;20446;-69
2021/09/05 11:24:40;;;;;;;17.80;12.20;;;;;;;;;;5073702;28;20478;-69
2021/09/05 11:27:09;;;;;;;14.73;11.97;;;;;;;;;;5073601;28;20495;-69
2021/09/05 11:29:37;;;;;;;17.47;12.90;;;;;;;;;;5074109;28;20461;-69
2021/09/05 11:32:05;;;;;;;17.93;12.60;;;;;;;;;;5074042;28;20537;-69
2021/09/05 11:34:32;;;;;;;15.10;12.03;;;;;;;;;;5073874;28;20493;-69
2021/09/05 11:36:59;;;;;;;13.57;11.90;;;;;;;;;;5074179;28;20449;-69
2021/09/05 11:39:27;;;;;;;17.10;12.93;;;;;;;;;;5073652;28;20479;-69
2021/09/05 11:41:54;;;;;;;17.93;13.27;;;;;;;;;;5073322;28;20448;-69
2021/09/05 11:44:29;;;;;;;25.10;13.43;;;;;;;;;;5073299;28;20444;-69
2021/09/05 11:47:07;;;;;;;15.83;12.00;;;;;;;;;;5074127;28;20430;-70
2021/09/05 11:49:35;;;;;;;19.73;13.47;;;;;;;;;;5073577;28;20485;-70
2021/09/05 11:52:03;;;;;;;19.77;14.60;;;;;;;;;;5073436;28;21020;-69
2021/09/05 11:54:30;;;;;;;15.70;12.47;;;;;;;;;;5073489;28;20452;-70
2021/09/05 11:56:58;;;;;;;15.40;12.33;;;;;;;;;;5073516;28;20864;-69
2021/09/05 11:59:26;;;;;;;17.27;12.00;;;;;;;;;;5073231;28;20834;-69
2021/09/05 12:01:54;;;;;;;15.03;11.73;;;;;;;;;;5073944;28;20440;-70
2021/09/05 12:04:22;;;;;;;13.43;11.90;;;;;;;;;;5073454;28;20449;-69
2021/09/05 12:06:49;;;;;;;14.90;12.00;;;;;;;;;;5073434;28;20434;-69
2021/09/05 12:09:26;;;;;;;16.63;11.07;;;;;;;;;;5073569;28;20454;-68
2021/09/05 12:11:58;;;;;;;15.80;12.60;;;;;;;;;;5072932;28;20434;-68
2021/09/05 12:14:28;;;;;;;15.00;11.57;;;;;;;;;;5073228;28;20470;-68
2021/09/05 12:16:57;;;;;;;14.30;11.00;;;;;;;;;;5072759;28;20447;-68
2021/09/05 12:19:24;;;;;;;18.10;13.27;;;;;;;;;;5072715;28;20454;-68
2021/09/05 12:21:57;;;;;;;16.70;12.80;;;;;;;;;;5072683;28;20958;-68
2021/09/05 12:24:25;;;;;;;13.60;11.43;;;;;;;;;;5073226;28;20552;-68
2021/09/05 12:26:52;;;;;;;14.20;11.73;;;;;;;;;;5073097;28;20482;-68
2021/09/05 12:29:27;;;;;;;16.37;11.80;;;;;;;;;;5073128;28;20451;-68
2021/09/05 12:32:01;;;;;;;16.03;12.40;;;;;;;;;;5073152;28;20447;-70
2021/09/05 12:34:43;;;;;;;14.77;12.00;;;;;;;;;;5073450;28;20436;-70
2021/09/05 12:37:17;;;;;;;20.47;14.73;;;;;;;;;;5072991;28;20908;-69
2021/09/05 12:39:44;;;;;;;19.80;13.67;;;;;;;;;;5072697;28;21045;-70
2021/09/05 12:42:12;;;;;;;16.20;11.93;;;;;;;;;;5072758;28;20438;-69
2021/09/05 12:44:42;;;;;;;15.33;11.20;;;;;;;;;;5073026;28;20448;-70
2021/09/05 12:47:10;;;;;;;16.53;11.93;;;;;;;;;;5073535;28;20479;-70
2021/09/05 12:49:42;;;;;;;11.93;10.63;;;;;;;;;;5072790;28;20482;-70
2021/09/05 12:52:09;;;;;;;12.20;10.87;;;;;;;;;;5073428;28;20431;-70
2021/09/05 12:54:40;;;;;;;13.70;10.20;;;;;;;;;;5072569;28;20531;-69
2021/09/05 12:57:08;;;;;;;12.67;11.37;;;;;;;;;;5072594;28;20445;-70
2021/09/05 12:59:35;;;;;;;12.73;10.30;;;;;;;;;;5072889;28;20444;-70
2021/09/05 13:02:02;;;;;;;13.17;11.70;;;;;;;;;;5072766;28;20452;-71
2021/09/05 13:04:29;;;;;;;12.20;10.47;;;;;;;;;;5072779;28;20434;-70
2021/09/05 13:06:58;;;;;;;17.93;11.33;;;;;;;;;;5072671;28;20436;-70
2021/09/05 13:09:25;;;;;;;14.00;12.00;;;;;;;;;;5072461;28;20523;-71
2021/09/05 13:11:53;;;;;;;13.50;11.00;;;;;;;;;;5072050;28;20445;-70
2021/09/05 13:14:20;;;;;;;12.47;10.43;;;;;;;;;;5072812;28;20438;-68
2021/09/05 13:16:47;;;;;;;13.27;10.47;;;;;;;;;;5072116;28;21177;-69
2021/09/05 13:19:14;;;;;;;12.00;10.77;;;;;;;;;;5072111;28;20519;-70
2021/09/05 13:21:42;;;;;;;13.40;10.80;;;;;;;;;;5071802;28;20980;-69
2021/09/05 13:24:13;;;;;;;13.40;11.40;;;;;;;;;;5071690;28;20884;-70
2021/09/05 13:26:41;;;;;;;11.80;10.70;;;;;;;;;;5072264;28;20429;-69
2021/09/05 13:29:08;;;;;;;13.13;10.87;;;;;;;;;;5075323;28;20449;-70
2021/09/05 13:31:35;;;;;;;17.87;11.83;;;;;;;;;;5075549;28;20944;-67
2021/09/05 13:34:02;;;;;;;12.10;10.90;;;;;;;;;;5075985;28;20442;-70
2021/09/05 13:36:30;;;;;;;15.47;11.47;;;;;;;;;;5074293;28;20527;-70
2021/09/05 13:38:57;;;;;;;16.63;11.20;;;;;;;;;;5075709;28;20443;-70
2021/09/05 13:41:25;;;;;;;13.77;11.60;;;;;;;;;;5075671;28;20483;-70
2021/09/05 13:43:53;;;;;;;11.57;10.30;;;;;;;;;;5075241;28;20460;-72
2021/09/05 13:46:20;;;;;;;12.17;10.70;;;;;;;;;;5075368;28;20447;-70
2021/09/05 13:48:47;;;;;;;18.03;10.80;;;;;;;;;;5074881;28;20473;-70
2021/09/05 13:51:14;;;;;;;12.00;10.80;;;;;;;;;;5075838;28;20447;-70
2021/09/05 13:53:44;;;;;;;11.80;10.63;;;;;;;;;;5075552;28;20479;-70
2021/09/05 13:56:11;;;;;;;14.20;12.70;;;;;;;;;;5075223;28;20857;-70
2021/09/05 13:58:39;;;;;;;13.37;11.07;;;;;;;;;;5075041;28;20957;-69
2021/09/05 14:01:07;;;;;;;11.43;10.23;;;;;;;;;;5074964;28;20534;-70
2021/09/05 14:03:34;;;;;;;11.03;9.93;;;;;;;;;;5074979;28;20486;-70
2021/09/05 14:06:01;;;;;;;12.63;10.93;;;;;;;;;;5073164;28;20447;-70
2021/09/05 14:08:28;;;;;;;14.10;10.77;;;;;;;;;;5075151;28;20539;-70
2021/09/05 14:10:56;;;;;;;14.73;11.30;;;;;;;;;;5075096;28;20447;-70
2021/09/05 14:13:23;;;;;;;10.93;9.80;;;;;;;;;;5075331;28;20513;-70
2021/09/05 14:15:52;;;;;;;14.67;13.07;;;;;;;;;;5074450;28;20451;-70
2021/09/05 14:18:19;;;;;;;13.40;10.97;;;;;;;;;;5074663;28;20937;-70
2021/09/05 14:20:46;;;;;;;11.53;9.80;;;;;;;;;;5075057;28;20477;-68
2021/09/05 14:23:15;;;;;;;12.77;10.50;;;;;;;;;;5074895;28;20449;-67